Time;durP1;ratioP1;P1;durP2;ratioP2;P2;SDS_P1;SDS_P2;PMS_P1;PMS_P2;Temp;Humidity;BMP_temperature;BMP_pressure;BME280_temperature;BME280_humidity;BME280_pressure;Samples;Min_cycle;Max_cycle;Signal;HPM_P1;HPM_P2
2021/09/14 00:02:16;;;;;;;12.40;7.00;;;;;;;13.87;65.13;99935.75;10393474;28;20524;-64
2021/09/14 00:07:18;;;;;;;11.80;7.85;;;;;;;13.74;64.92;99930.53;10392616;28;20482;-64
2021/09/14 00:12:19;;;;;;;11.45;7.35;;;;;;;13.70;65.03;99926.47;10392828;28;20136;-64
2021/09/14 00:17:21;;;;;;;12.27;8.25;;;;;;;13.64;65.01;99921.66;10392616;28;20064;-64
2021/09/14 00:22:23;;;;;;;21.50;10.07;;;;;;;13.53;65.26;99916.34;10393055;28;20058;-64
2021/09/14 00:27:25;;;;;;;9.90;8.25;;;;;;;13.47;65.26;99912.38;10392784;28;20433;-64
2021/09/14 00:32:27;;;;;;;11.15;7.60;;;;;;;13.52;65.30;99922.53;10391259;28;20053;-64
2021/09/14 00:37:28;;;;;;;183.52;17.27;;;;;;;13.40;65.37;99915.50;10390468;28;20055;-64
2021/09/14 00:42:30;;;;;;;20.25;9.48;;;;;;;13.19;65.83;99917.06;10392850;28;20057;-64
2021/09/14 00:47:32;;;;;;;11.02;7.63;;;;;;;13.28;65.86;99909.34;10392310;28;20060;-64
2021/09/14 00:52:35;;;;;;;16.42;11.90;;;;;;;13.20;65.61;99900.34;10392065;28;20077;-64
2021/09/14 00:57:37;;;;;;;14.18;10.40;;;;;;;13.05;66.13;99888.31;10390828;28;20065;-64
2021/09/14 01:02:39;;;;;;;13.88;7.65;;;;;;;13.12;66.15;99882.50;10391809;28;20057;-64
2021/09/14 01:07:42;;;;;;;12.57;7.68;;;;;;;13.24;65.80;99875.53;10392076;28;20057;-64
2021/09/14 01:12:44;;;;;;;16.20;9.70;;;;;;;13.28;65.70;99879.63;10392225;28;20089;-64
2021/09/14 01:17:46;;;;;;;11.68;7.65;;;;;;;13.13;65.81;99870.22;10391985;28;20049;-65
2021/09/14 01:22:47;;;;;;;13.43;9.07;;;;;;;13.14;65.69;99866.63;10395980;28;20053;-65
2021/09/14 01:27:50;;;;;;;15.07;9.23;;;;;;;13.12;65.46;99864.13;10398929;28;20152;-64
2021/09/14 01:32:54;;;;;;;105.50;15.88;;;;;;;12.91;65.69;99873.50;10399097;28;20778;-65
2021/09/14 01:37:56;;;;;;;13.82;7.93;;;;;;;12.73;66.06;99875.63;10398334;28;20144;-65
2021/09/14 01:42:58;;;;;;;74.65;8.88;;;;;;;12.76;66.41;99878.03;10422659;28;20432;-64
2021/09/14 01:48:00;;;;;;;15.45;7.60;;;;;;;12.79;66.37;99880.47;10439571;28;20055;-65
2021/09/14 01:53:02;;;;;;;10.57;7.05;;;;;;;12.83;66.22;99873.19;10397758;28;20063;-65
2021/09/14 01:58:04;;;;;;;9.02;6.57;;;;;;;12.82;65.92;99872.34;10397930;28;20061;-65
2021/09/14 02:03:19;;;;;;;25.08;8.52;;;;;;;12.78;65.85;99881.38;10397472;28;20420;-65
2021/09/14 03:01:15;;;;;;;410.97;15.03;;;;;;;12.24;66.74;99860.69;10395297;28;20061;-64
2021/09/14 03:06:19;;;;;;;458.70;24.02;;;;;;;12.11;66.96;99855.44;10394640;28;20054;-65
2021/09/14 03:11:20;;;;;;;361.95;17.58;;;;;;;11.97;67.48;99856.34;10394820;28;20517;-65
2021/09/14 03:16:22;;;;;;;341.02;19.15;;;;;;;11.96;67.38;99843.38;10394582;28;20099;-65
2021/09/14 03:21:24;;;;;;;139.95;11.77;;;;;;;12.02;67.23;99848.19;10394687;28;20057;-65
2021/09/14 03:26:25;;;;;;;123.38;10.73;;;;;;;12.12;66.84;99857.13;10394976;28;20054;-65
2021/09/14 03:31:27;;;;;;;164.35;13.35;;;;;;;12.15;66.84;99844.63;10394038;28;20064;-65
2021/09/14 03:36:29;;;;;;;361.90;11.65;;;;;;;11.97;66.85;99842.41;10393710;28;20053;-65
2021/09/14 03:41:30;;;;;;;629.78;22.85;;;;;;;11.84;67.13;99844.19;10393591;28;20068;-65
2021/09/14 03:46:32;;;;;;;478.92;22.65;;;;;;;11.79;67.02;99839.25;10393256;28;20136;-65
2021/09/14 03:51:34;;;;;;;480.02;24.13;;;;;;;11.69;67.57;99834.69;10393605;28;20464;-65
2021/09/14 03:56:35;;;;;;;445.05;21.38;;;;;;;11.58;67.34;99845.06;10393446;28;20482;-65
2021/09/14 04:01:38;;;;;;;336.58;17.80;;;;;;;11.54;67.82;99839.16;10391511;28;20509;-65
2021/09/14 04:12:00;;;;;;;250.63;12.30;;;;;;;11.42;68.16;99826.03;10393041;28;20049;-65
2021/09/14 04:17:02;;;;;;;179.73;11.52;;;;;;;11.50;68.27;99821.16;10392861;28;20057;-65
2021/09/14 04:22:04;;;;;;;742.17;29.02;;;;;;;11.39;67.99;99815.75;10392451;28;20060;-65
2021/09/14 04:27:09;;;;;;;780.38;23.67;;;;;;;11.25;68.03;99820.09;10392590;28;20521;-65
2021/09/14 04:32:11;;;;;;;304.27;12.70;;;;;;;11.20;68.48;99814.31;10392643;28;20330;-65
2021/09/14 04:37:13;;;;;;;7.80;6.00;;;;;;;11.44;67.80;99829.41;10392220;28;20132;-65
2021/09/14 04:42:15;;;;;;;14.57;7.55;;;;;;;11.60;67.39;99819.59;10391877;28;20057;-65
2021/09/14 04:47:16;;;;;;;607.40;25.48;;;;;;;11.44;67.32;99819.75;10392341;28;20050;-65
2021/09/14 04:52:18;;;;;;;448.85;19.77;;;;;;;11.41;67.78;99822.56;10391870;28;20064;-65
2021/09/14 04:57:19;;;;;;;609.50;22.92;;;;;;;11.30;67.66;99820.66;10395658;28;20062;-65
2021/09/14 05:02:21;;;;;;;469.40;18.95;;;;;;;11.21;67.99;99809.94;10399767;28;20239;-65
2021/09/14 05:07:23;;;;;;;356.85;14.73;;;;;;;11.25;67.96;99822.72;10398726;28;20172;-65
2021/09/14 05:12:25;;;;;;;228.38;16.60;;;;;;;11.30;67.80;99823.25;10397297;28;20264;-65
2021/09/14 05:17:26;;;;;;;93.75;9.77;;;;;;;11.21;67.98;99823.03;10396265;28;20550;-65
2021/09/14 05:22:33;;;;;;;398.05;18.45;;;;;;;11.37;67.77;99820.25;10395325;28;20058;-65
2021/09/14 05:27:35;;;;;;;502.40;17.83;;;;;;;11.51;67.50;99821.03;10396403;28;20053;-64
2021/09/14 05:32:36;;;;;;;336.42;13.73;;;;;;;11.61;67.63;99824.72;10396631;28;20057;-65
2021/09/14 05:37:38;;;;;;;508.25;16.88;;;;;;;11.64;67.27;99821.91;10395970;28;20068;-64
2021/09/14 05:42:40;;;;;;;28.73;6.32;;;;;;;11.75;67.14;99831.69;10395471;28;20050;-65
2021/09/14 05:47:41;;;;;;;14.45;5.95;;;;;;;11.96;66.80;99831.09;10395756;28;20059;-65
2021/09/14 05:52:43;;;;;;;9.25;6.25;;;;;;;12.24;67.06;99826.59;10395410;28;20141;-64
2021/09/14 05:57:44;;;;;;;24.05;7.95;;;;;;;12.46;66.16;99824.22;10395369;28;20133;-65
2021/09/14 06:02:46;;;;;;;10.95;6.47;;;;;;;12.69;65.71;99821.69;10395576;28;20053;-65
2021/09/14 06:07:48;;;;;;;10.75;6.85;;;;;;;12.62;65.85;99823.06;10354610;28;1171248;-65
2021/09/14 06:12:49;;;;;;;13.90;8.07;;;;;;;12.80;65.96;99819.13;10397550;28;20296;-65
2021/09/14 06:17:51;;;;;;;10.52;6.68;;;;;;;13.09;65.35;99816.25;10397119;28;20060;-65
2021/09/14 06:22:53;;;;;;;7.97;6.75;;;;;;;13.17;65.35;99821.78;10396838;28;20049;-65
2021/09/14 06:27:55;;;;;;;12.05;6.20;;;;;;;13.26;65.05;99832.47;10396443;28;20056;-65
2021/09/14 06:32:58;;;;;;;10.57;5.95;;;;;;;13.53;65.00;99827.00;10396931;28;20197;-65
2021/09/14 06:37:59;;;;;;;11.38;9.65;;;;;;;13.75;65.00;99821.84;10396517;28;20144;-65
2021/09/14 06:43:01;;;;;;;22.77;8.63;;;;;;;14.04;64.91;99819.66;10395658;28;20384;-65
2021/09/14 06:48:03;;;;;;;17.60;8.77;;;;;;;14.41;64.40;99821.16;10396116;28;20148;-65
2021/09/14 06:53:06;;;;;;;9.80;6.65;;;;;;;14.70;63.66;99826.81;10395354;28;20068;-65
2021/09/14 06:58:08;;;;;;;14.27;6.00;;;;;;;14.86;63.51;99819.41;10394099;28;20569;-66
2021/09/14 07:03:09;;;;;;;12.07;7.55;;;;;;;15.16;63.30;99819.59;10395020;28;20056;-65
2021/09/14 07:08:13;;;;;;;19.80;12.00;;;;;;;15.17;62.53;99823.88;10395183;28;20140;-65
2021/09/14 07:13:14;;;;;;;12.18;9.82;;;;;;;15.09;62.83;99821.88;10395306;28;20148;-65
2021/09/14 07:18:16;;;;;;;12.82;10.35;;;;;;;15.32;62.44;99825.28;10392146;28;20144;-66
2021/09/14 07:23:20;;;;;;;14.07;10.13;;;;;;;15.57;61.79;99824.16;10394709;28;20061;-65
2021/09/14 07:28:21;;;;;;;13.57;10.68;;;;;;;15.74;61.02;99820.97;10394134;28;20053;-65
2021/09/14 07:33:23;;;;;;;14.18;10.27;;;;;;;15.99;60.77;99824.09;10392888;28;20489;-65
2021/09/14 07:38:25;;;;;;;16.73;10.10;;;;;;;16.43;60.06;99814.19;10393808;28;20519;-65
2021/09/14 07:43:27;;;;;;;12.30;10.30;;;;;;;16.94;58.23;99815.00;10393702;28;20065;-65
2021/09/14 07:48:28;;;;;;;13.73;9.80;;;;;;;16.87;58.40;99809.41;10393587;28;20061;-65
2021/09/14 07:53:30;;;;;;;10.77;9.13;;;;;;;17.13;58.14;99807.13;10392977;28;20397;-65
2021/09/14 07:58:32;;;;;;;18.38;10.65;;;;;;;17.43;56.85;99804.41;10393556;28;20144;-65
2021/09/14 08:03:34;;;;;;;11.40;9.35;;;;;;;17.62;56.41;99804.44;10393396;28;20136;-65
2021/09/14 08:08:39;;;;;;;14.68;9.95;;;;;;;17.82;55.85;99798.16;10392930;28;20111;-65
2021/09/14 08:13:42;;;;;;;13.00;9.27;;;;;;;17.89;55.59;99811.66;10393092;28;20064;-65
2021/09/14 08:18:44;;;;;;;17.60;9.32;;;;;;;18.21;55.16;99808.72;10392795;28;20058;-65
2021/09/14 08:23:46;;;;;;;15.43;8.82;;;;;;;18.42;54.83;99804.06;10391501;28;20055;-65
2021/09/14 08:28:48;;;;;;;14.52;9.77;;;;;;;18.43;54.83;99789.81;10393596;28;20067;-65
2021/09/14 08:33:49;;;;;;;12.52;9.00;;;;;;;18.54;54.06;99801.06;10440639;28;20057;-65
2021/09/14 08:38:52;;;;;;;13.82;8.32;;;;;;;18.69;54.09;99801.44;10440784;28;20056;-65
2021/09/14 08:43:54;;;;;;;14.32;9.00;;;;;;;19.07;53.59;99798.63;10441403;28;20055;-65
2021/09/14 08:48:58;;;;;;;13.18;9.05;;;;;;;19.52;52.63;99795.09;10441707;28;20063;-65
2021/09/14 08:53:59;;;;;;;16.77;8.75;;;;;;;19.38;52.68;99788.50;10441379;28;20052;-65
2021/09/14 08:59:03;;;;;;;10.85;8.43;;;;;;;19.54;52.05;99796.63;10400237;28;20053;-65
2021/09/14 09:04:07;;;;;;;15.07;8.07;;;;;;;19.39;52.11;99804.28;10400430;28;20201;-65
2021/09/14 09:09:14;;;;;;;10.90;8.18;;;;;;;19.64;52.22;99796.53;10399378;28;20119;-65
2021/09/14 09:14:16;;;;;;;13.77;7.80;;;;;;;19.79;52.27;99800.31;10399236;28;20395;-65
2021/09/14 09:19:24;;;;;;;10.85;8.20;;;;;;;19.90;51.28;99805.41;10398993;28;20148;-65
2021/09/14 09:24:26;;;;;;;12.20;7.80;;;;;;;19.87;51.13;99803.06;10399081;28;20056;-65
2021/09/14 09:29:28;;;;;;;12.70;7.93;;;;;;;20.37;50.41;99784.66;10406612;28;20052;-65
2021/09/14 09:34:30;;;;;;;9.13;7.30;;;;;;;20.51;50.08;99790.22;10439832;28;20049;-65
2021/09/14 09:39:47;;;;;;;13.00;7.43;;;;;;;20.29;49.89;99773.00;10439376;28;20411;-65
2021/09/14 09:44:54;;;;;;;11.95;7.05;;;;;;;20.19;50.87;99766.16;10438429;28;20137;-65
2021/09/14 09:49:56;;;;;;;17.30;7.47;;;;;;;20.08;51.14;99771.69;10439008;28;20061;-65
2021/09/14 09:54:58;;;;;;;10.10;7.13;;;;;;;20.46;50.99;99775.75;10438922;28;20540;-65
2021/09/14 10:00:00;;;;;;;12.48;6.88;;;;;;;20.84;50.63;99777.94;10438781;28;20065;-65
2021/09/14 10:05:08;;;;;;;10.63;6.78;;;;;;;20.86;50.10;99774.16;10438501;28;20300;-65
2021/09/14 10:10:10;;;;;;;10.13;6.22;;;;;;;20.88;50.19;99773.97;10438187;28;20198;-65
2021/09/14 10:15:14;;;;;;;10.18;6.68;;;;;;;21.01;49.45;99769.03;10438110;28;20444;-65
2021/09/14 10:20:19;;;;;;;9.30;6.30;;;;;;;20.62;50.71;99767.91;10437880;28;20057;-65
2021/09/14 10:25:21;;;;;;;9.90;6.32;;;;;;;20.87;50.27;99782.94;10437582;28;20318;-64
2021/09/14 10:30:24;;;;;;;11.38;6.25;;;;;;;21.37;48.82;99780.28;10396067;28;20058;-65
2021/09/14 10:35:33;;;;;;;13.60;6.00;;;;;;;21.79;48.75;99765.84;10396525;28;20140;-65
2021/09/14 10:40:55;;;;;;;11.68;5.50;;;;;;;21.85;48.21;99749.19;10396328;28;20547;-65
2021/09/14 10:45:58;;;;;;;9.20;6.20;;;;;;;21.94;49.01;99744.69;10395937;28;20140;-65
2021/09/14 10:51:14;;;;;;;10.55;6.75;;;;;;;21.56;49.28;99742.69;10395744;28;20137;-64
2021/09/14 10:56:16;;;;;;;8.88;5.60;;;;;;;21.43;49.51;99737.91;10394834;28;20145;-65
2021/09/14 11:01:27;;;;;;;10.02;5.45;;;;;;;21.28;49.77;99738.66;10395182;28;20136;-65
2021/09/14 11:06:29;;;;;;;7.28;5.32;;;;;;;21.37;49.96;99725.25;10394931;28;20072;-65
2021/09/14 11:11:32;;;;;;;10.88;4.97;;;;;;;21.65;49.95;99731.91;10393482;28;20054;-65
2021/09/14 11:16:34;;;;;;;6.47;4.85;;;;;;;21.62;50.05;99721.59;10394328;28;20053;-65
2021/09/14 11:21:44;;;;;;;6.25;4.80;;;;;;;21.90;49.72;99719.41;10394578;28;20454;-65
2021/09/14 11:26:45;;;;;;;7.82;4.55;;;;;;;22.16;49.26;99725.38;10394432;28;20516;-65
2021/09/14 11:31:47;;;;;;;12.50;4.90;;;;;;;22.47;48.97;99726.28;10394051;28;20502;-65
2021/09/14 11:36:49;;;;;;;10.35;5.22;;;;;;;22.61;48.85;99714.06;10392852;28;20061;-65
2021/09/14 11:41:58;;;;;;;8.68;4.97;;;;;;;23.00;48.53;99717.56;10394316;28;20057;-65
2021/09/14 11:47:07;;;;;;;9.18;4.75;;;;;;;23.27;46.78;99718.84;10393682;28;20079;-65
2021/09/14 11:52:09;;;;;;;8.48;5.03;;;;;;;23.43;47.53;99721.47;10393594;28;20049;-65
2021/09/14 11:57:19;;;;;;;9.18;4.55;;;;;;;23.75;46.44;99718.50;10393307;28;20057;-65
2021/09/14 12:02:22;;;;;;;6.45;4.38;;;;;;;23.85;46.08;99712.91;10392837;28;20566;-64
2021/09/14 12:07:23;;;;;;;7.10;4.65;;;;;;;23.65;46.16;99712.59;10392484;28;20063;-65
2021/09/14 12:12:25;;;;;;;8.98;4.50;;;;;;;23.89;46.44;99706.19;10392496;28;20561;-65
2021/09/14 12:17:28;;;;;;;6.38;4.50;;;;;;;23.99;46.02;99704.91;10393138;28;20061;-65
2021/09/14 12:22:30;;;;;;;10.82;4.15;;;;;;;24.25;46.06;99699.97;10392427;28;20064;-65
2021/09/14 12:27:32;;;;;;;11.25;4.75;;;;;;;23.95;45.92;99698.28;10392675;28;20064;-64
2021/09/14 12:32:34;;;;;;;8.48;3.80;;;;;;;23.90;47.42;99689.16;10392298;28;20215;-65
2021/09/14 12:37:35;;;;;;;11.32;4.72;;;;;;;24.00;46.58;99697.72;10392376;28;20514;-65
2021/09/14 12:42:37;;;;;;;13.63;4.50;;;;;;;24.05;46.30;99693.50;10392300;28;20164;-65
2021/09/14 12:47:39;;;;;;;5.50;3.83;;;;;;;24.13;46.84;99693.44;10392187;28;20133;-65
2021/09/14 12:52:41;;;;;;;8.45;4.05;;;;;;;24.11;47.07;99681.25;10391051;28;20054;-65
2021/09/14 12:57:42;;;;;;;5.85;4.07;;;;;;;24.09;47.11;99692.13;10392181;28;20068;-65
2021/09/14 13:02:44;;;;;;;5.22;4.00;;;;;;;24.19;46.64;99676.66;10391773;28;20061;-65
2021/09/14 13:07:46;;;;;;;8.90;3.92;;;;;;;24.32;45.78;99673.34;10391310;28;20057;-64
2021/09/14 13:18:24;;;;;;;8.43;3.67;;;;;;;25.09;45.48;99659.25;10395239;28;20053;-65
2021/09/14 13:23:27;;;;;;;9.80;3.60;;;;;;;25.02;45.12;99662.84;10399154;28;20061;-65
2021/09/14 13:28:29;;;;;;;6.38;3.80;;;;;;;25.22;44.33;99669.25;10398854;28;20061;-65
2021/09/14 13:33:31;;;;;;;5.45;3.60;;;;;;;25.17;45.45;99666.31;10398786;28;20420;-65
2021/09/14 13:38:33;;;;;;;7.45;3.47;;;;;;;25.24;45.81;99653.84;10398520;28;20172;-64
2021/09/14 13:49:01;;;;;;;5.40;3.73;;;;;;;25.19;44.07;99655.41;10398072;28;20406;-64
2021/09/14 13:54:03;;;;;;;7.10;3.90;;;;;;;25.17;44.72;99660.13;10397510;28;20053;-65
2021/09/14 13:59:04;;;;;;;5.07;3.40;;;;;;;25.44;45.17;99646.81;10396816;28;20305;-65
2021/09/14 14:04:06;;;;;;;8.55;4.00;;;;;;;25.56;45.06;99655.16;10436680;28;20056;-66
2021/09/14 14:09:08;;;;;;;9.13;3.67;;;;;;;25.79;43.83;99648.50;10438407;28;20053;-65
2021/09/14 14:14:11;;;;;;;8.55;3.80;;;;;;;26.05;43.25;99642.53;10438258;28;20053;-65
2021/09/14 14:19:12;;;;;;;7.07;3.83;;;;;;;26.05;43.41;99641.69;10396803;28;20063;-65
2021/09/14 14:24:14;;;;;;;9.80;3.70;;;;;;;26.05;44.26;99642.53;10396889;28;20251;-65
2021/09/14 14:29:16;;;;;;;12.25;3.70;;;;;;;26.03;44.24;99651.78;10395004;28;20060;-65
2021/09/14 14:34:17;;;;;;;9.73;4.22;;;;;;;26.07;43.62;99650.38;10396337;28;20062;-65
2021/09/14 14:39:19;;;;;;;8.10;3.63;;;;;;;25.98;44.07;99646.22;10396231;28;20585;-65
2021/09/14 14:44:21;;;;;;;11.20;3.95;;;;;;;25.92;44.19;99629.84;10395748;28;20502;-65
2021/09/14 14:49:23;;;;;;;5.80;3.70;;;;;;;25.63;45.14;99639.97;10395769;28;20464;-65
2021/09/14 14:54:25;;;;;;;11.90;4.88;;;;;;;25.69;45.66;99644.53;10395518;28;20087;-65
2021/09/14 14:59:26;;;;;;;9.68;3.63;;;;;;;25.54;45.32;99635.78;10395281;28;20052;-65
2021/09/14 15:04:28;;;;;;;12.02;4.28;;;;;;;25.43;46.95;99633.59;10393692;28;20523;-65
2021/09/14 15:09:30;;;;;;;6.22;3.40;;;;;;;25.42;47.08;99637.31;10415202;28;20053;-65
2021/09/14 15:14:32;;;;;;;7.63;4.38;;;;;;;25.49;46.61;99632.88;10436506;28;20063;-65
2021/09/14 15:19:33;;;;;;;8.57;3.63;;;;;;;25.57;47.14;99630.84;10435278;28;20060;-65
2021/09/14 15:24:35;;;;;;;17.52;4.35;;;;;;;25.71;47.63;99643.31;10436378;28;20060;-65
2021/09/14 15:29:37;;;;;;;9.43;3.60;;;;;;;25.77;47.75;99636.34;10426163;28;20057;-65
2021/09/14 15:34:39;;;;;;;11.50;4.03;;;;;;;25.66;48.38;99640.41;10394547;28;20056;-65
2021/09/14 15:39:43;;;;;;;6.22;3.65;;;;;;;25.66;47.88;99635.03;10393859;28;20068;-65
2021/09/14 15:44:45;;;;;;;12.10;3.70;;;;;;;25.58;48.53;99629.84;10393510;28;20379;-65
2021/09/14 15:49:47;;;;;;;10.15;4.25;;;;;;;25.44;48.34;99633.44;10393744;28;20136;-65
2021/09/14 15:54:49;;;;;;;7.93;4.30;;;;;;;25.34;49.21;99632.13;10393471;28;20053;-65
2021/09/14 15:59:50;;;;;;;11.48;4.88;;;;;;;25.17;49.82;99620.81;10391866;28;20428;-64
2021/09/14 16:04:52;;;;;;;16.23;5.10;;;;;;;25.00;50.41;99616.72;10391713;28;20935;-64
2021/09/14 16:09:54;;;;;;;13.85;4.63;;;;;;;24.84;50.52;99617.81;10392494;28;20528;-64
2021/09/14 16:14:55;;;;;;;8.93;4.30;;;;;;;24.78;50.39;99623.09;10393040;28;20053;-64
2021/09/14 16:19:57;;;;;;;7.80;4.55;;;;;;;24.64;51.35;99608.72;10392601;28;20419;-64
2021/09/14 16:25:00;;;;;;;5.97;4.40;;;;;;;24.25;52.27;99613.63;10393668;28;20062;-66
2021/09/14 16:30:03;;;;;;;16.90;4.93;;;;;;;24.10;52.80;99615.50;10392645;28;20380;-66
2021/09/14 16:35:06;;;;;;;16.38;4.57;;;;;;;24.00;53.05;99620.25;10392850;28;20049;-63
2021/09/14 16:40:10;;;;;;;12.82;4.95;;;;;;;23.86;54.65;99615.75;10392168;28;20047;-63
2021/09/14 16:45:12;;;;;;;11.88;4.80;;;;;;;23.73;55.49;99611.03;10392305;28;20136;-63
2021/09/14 16:50:14;;;;;;;10.57;5.05;;;;;;;23.63;56.42;99621.16;10393240;28;20049;-66
2021/09/14 16:55:16;;;;;;;12.02;5.03;;;;;;;23.53;56.35;99615.25;10400104;28;20093;-66
2021/09/14 17:00:18;;;;;;;10.40;4.78;;;;;;;23.39;56.90;99610.69;10400271;28;20057;-66
2021/09/14 17:05:20;;;;;;;11.25;5.03;;;;;;;23.25;56.54;99612.31;10399655;28;20057;-66
2021/09/14 17:10:22;;;;;;;11.55;4.57;;;;;;;23.09;56.59;99607.09;10399488;28;20703;-65
2021/09/14 17:15:24;;;;;;;9.10;4.60;;;;;;;22.92;57.44;99608.25;10399555;28;20505;-65
2021/09/14 17:20:25;;;;;;;8.10;4.88;;;;;;;22.72;57.88;99611.53;10398922;28;20061;-65
2021/09/14 17:25:27;;;;;;;11.30;4.88;;;;;;;22.62;57.86;99611.75;10399306;28;20141;-65
2021/09/14 17:30:29;;;;;;;12.23;4.70;;;;;;;22.56;58.03;99610.63;10398925;28;20520;-65
2021/09/14 17:35:31;;;;;;;10.23;5.00;;;;;;;22.43;58.70;99610.34;10398563;28;20053;-65
2021/09/14 17:40:32;;;;;;;9.40;4.90;;;;;;;22.26;59.17;99602.63;10398198;28;20053;-65
2021/09/14 17:45:34;;;;;;;10.30;5.13;;;;;;;22.14;59.63;99598.69;10398517;28;20145;-65
2021/09/14 17:50:36;;;;;;;9.93;5.05;;;;;;;21.94;60.12;99602.72;10398179;28;20410;-65
2021/09/14 17:55:38;;;;;;;7.40;5.40;;;;;;;21.79;60.50;99598.13;10398056;28;20053;-65
2021/09/14 18:00:40;;;;;;;11.55;5.35;;;;;;;21.71;60.90;99600.81;10397528;28;20164;-65
2021/09/14 18:05:42;;;;;;;10.45;5.40;;;;;;;21.65;61.26;99601.50;10397435;28;20049;-65
2021/09/14 18:10:44;;;;;;;10.32;6.00;;;;;;;21.61;61.64;99605.50;10396982;28;20056;-65
2021/09/14 18:15:46;;;;;;;7.28;5.47;;;;;;;21.47;61.71;99606.19;10397435;28;20049;-65
2021/09/14 18:20:47;;;;;;;9.68;5.53;;;;;;;21.46;61.63;99607.16;10396797;28;20147;-65
2021/09/14 18:25:49;;;;;;;12.32;6.30;;;;;;;21.42;62.09;99607.66;10397666;28;20061;-65
2021/09/14 18:30:51;;;;;;;14.77;6.25;;;;;;;21.37;62.27;99605.53;10395561;28;20061;-65
2021/09/14 18:35:53;;;;;;;10.27;6.00;;;;;;;21.35;62.46;99609.34;10396946;28;20061;-65
2021/09/14 18:40:54;;;;;;;11.15;5.65;;;;;;;21.37;62.19;99610.03;10394670;28;20053;-65
2021/09/14 18:45:56;;;;;;;9.30;5.82;;;;;;;21.32;62.11;99610.53;10394555;28;20058;-65
2021/09/14 18:50:58;;;;;;;14.77;6.30;;;;;;;21.25;62.27;99614.84;10394604;28;20067;-65
2021/09/14 18:56:00;;;;;;;9.52;6.03;;;;;;;21.07;62.43;99619.47;10395689;28;20076;-65
2021/09/14 19:01:02;;;;;;;9.27;6.05;;;;;;;21.02;62.60;99611.16;10395475;28;20248;-65
2021/09/14 19:06:04;;;;;;;11.75;6.40;;;;;;;20.98;62.82;99615.16;10395373;28;20050;-65
2021/09/14 19:11:06;;;;;;;13.50;5.85;;;;;;;21.02;62.89;99617.31;10395180;28;20148;-65
2021/09/14 19:16:08;;;;;;;11.43;5.72;;;;;;;20.90;63.01;99610.66;10394175;28;20080;-65
2021/09/14 19:21:10;;;;;;;9.32;6.22;;;;;;;20.81;63.37;99613.47;10394404;28;20061;-65
2021/09/14 19:26:12;;;;;;;17.20;6.47;;;;;;;20.74;63.32;99615.13;10394529;28;20060;-65
2021/09/14 19:31:13;;;;;;;23.65;6.85;;;;;;;20.77;63.30;99617.44;10395133;28;20053;-65
2021/09/14 19:36:18;;;;;;;13.60;6.10;;;;;;;20.79;63.27;99616.28;10394312;28;20416;-65
2021/09/14 19:41:20;;;;;;;9.35;6.28;;;;;;;20.70;63.79;99619.09;10393702;28;20482;-65
2021/09/14 19:46:21;;;;;;;11.45;7.18;;;;;;;20.70;63.82;99616.44;10393737;28;20563;-65
2021/09/14 19:51:23;;;;;;;12.27;6.57;;;;;;;20.59;63.80;99614.09;10392369;28;20056;-64
2021/09/14 19:56:25;;;;;;;10.90;6.32;;;;;;;20.63;64.10;99631.38;10393616;28;20231;-65
2021/09/14 20:01:27;;;;;;;11.07;6.57;;;;;;;20.63;64.03;99636.69;10392156;28;20067;-65
2021/09/14 20:06:28;;;;;;;10.20;6.88;;;;;;;20.67;64.05;99632.72;10392993;28;20417;-64
2021/09/14 20:11:30;;;;;;;12.27;6.65;;;;;;;20.63;63.85;99644.66;10391659;28;20055;-64
2021/09/14 20:16:32;;;;;;;15.23;9.98;;;;;;;20.56;63.72;99635.66;10392972;28;20140;-64
2021/09/14 20:21:34;;;;;;;13.40;9.32;;;;;;;20.44;64.08;99628.97;10392855;28;20060;-65
2021/09/14 20:26:35;;;;;;;22.30;8.55;;;;;;;20.41;64.06;99624.81;10398203;28;20502;-65
2021/09/14 20:31:37;;;;;;;24.17;8.75;;;;;;;20.40;64.12;99625.78;10406103;28;20588;-65
2021/09/14 20:36:39;;;;;;;9.73;6.85;;;;;;;20.33;64.31;99623.97;10406075;28;20523;-65
2021/09/14 20:41:40;;;;;;;27.65;7.55;;;;;;;20.24;64.30;99615.13;10406139;28;20059;-65
2021/09/14 20:46:42;;;;;;;10.82;7.00;;;;;;;20.19;64.55;99614.78;10405876;28;20497;-65
2021/09/14 20:51:44;;;;;;;12.13;6.57;;;;;;;20.20;64.78;99619.09;10405825;28;20057;-65
2021/09/14 20:56:46;;;;;;;9.60;7.07;;;;;;;20.14;64.38;99609.94;10405979;28;20055;-65
2021/09/14 21:01:47;;;;;;;15.18;8.00;;;;;;;19.96;64.45;99619.84;10405312;28;20061;-65
2021/09/14 21:06:49;;;;;;;20.45;7.88;;;;;;;19.82;64.60;99620.44;10405170;28;20081;-65
2021/09/14 21:11:51;;;;;;;15.65;7.65;;;;;;;19.73;65.18;99621.31;10405738;28;20049;-65
2021/09/14 21:16:52;;;;;;;14.13;7.82;;;;;;;19.68;65.28;99622.78;10405482;28;20062;-64
2021/09/14 21:21:54;;;;;;;12.52;7.47;;;;;;;19.77;65.09;99629.78;10404243;28;20063;-65
2021/09/14 21:26:59;;;;;;;11.07;7.40;;;;;;;19.80;65.39;99610.91;10405077;28;20790;-65
2021/09/14 21:32:01;;;;;;;10.85;6.90;;;;;;;19.88;65.07;99617.13;10405166;28;20136;-65
2021/09/14 21:37:03;;;;;;;13.70;7.90;;;;;;;19.88;64.87;99613.66;10402964;28;20133;-65
2021/09/14 21:42:05;;;;;;;12.88;7.40;;;;;;;19.79;64.87;99630.47;10397714;28;20057;-65
2021/09/14 21:47:07;;;;;;;11.13;8.27;;;;;;;19.50;65.75;99625.50;10397116;28;20050;-65
2021/09/14 21:52:08;;;;;;;12.38;8.40;;;;;;;19.41;65.70;99618.47;10397115;28;20057;-66
2021/09/14 21:57:10;;;;;;;16.10;9.80;;;;;;;19.18;66.39;99614.63;10396789;28;20053;-65
2021/09/14 22:02:12;;;;;;;14.23;7.20;;;;;;;19.18;66.28;99607.53;10397359;28;20057;-65
2021/09/14 22:07:13;;;;;;;15.80;7.70;;;;;;;19.27;65.98;99608.44;10396172;28;20516;-65
2021/09/14 22:12:15;;;;;;;19.55;8.77;;;;;;;19.20;66.51;99599.41;10396300;28;20060;-65
2021/09/14 22:17:17;;;;;;;14.57;8.80;;;;;;;19.07;66.61;99607.78;10397039;28;20148;-65
2021/09/14 22:22:19;;;;;;;15.70;7.60;;;;;;;19.13;66.06;99612.47;10396969;28;20057;-65
2021/09/14 22:27:20;;;;;;;13.32;8.40;;;;;;;19.09;66.18;99607.63;10396679;28;20049;-65
2021/09/14 22:32:22;;;;;;;11.32;7.30;;;;;;;18.98;66.19;99608.66;10395493;28;20061;-65
2021/09/14 22:37:23;;;;;;;13.15;9.00;;;;;;;18.88;66.21;99602.59;10396641;28;20088;-65
2021/09/14 22:42:25;;;;;;;14.13;10.18;;;;;;;18.71;67.38;99600.78;10394836;28;20551;-65
2021/09/14 22:47:27;;;;;;;27.27;8.43;;;;;;;18.84;66.75;99605.69;10395744;28;20058;-65
2021/09/14 22:52:30;;;;;;;18.85;8.68;;;;;;;18.88;66.83;99602.59;10395875;28;20444;-65
2021/09/14 22:57:33;;;;;;;17.42;8.65;;;;;;;18.92;67.04;99593.38;10395521;28;20057;-65
2021/09/14 23:02:34;;;;;;;10.75;8.73;;;;;;;19.07;66.80;99599.00;10394334;28;20588;-65
2021/09/14 23:07:37;;;;;;;11.25;8.32;;;;;;;19.13;66.45;99596.56;10394963;28;20485;-66
2021/09/14 23:12:39;;;;;;;16.08;8.60;;;;;;;19.08;66.53;99593.53;10395228;28;20488;-65
2021/09/14 23:17:41;;;;;;;13.50;8.90;;;;;;;19.12;66.10;99592.22;10395058;28;20085;-65
2021/09/14 23:22:43;;;;;;;11.18;8.30;;;;;;;19.07;66.09;99581.28;10409323;28;20067;-65
2021/09/14 23:27:44;;;;;;;14.63;9.00;;;;;;;18.94;66.41;99583.44;10394646;28;20116;-65
2021/09/14 23:32:49;;;;;;;16.63;8.80;;;;;;;18.90;66.20;99583.91;10394431;28;20053;-65
2021/09/14 23:37:51;;;;;;;13.80;9.10;;;;;;;18.87;66.09;99590.31;10392981;28;20134;-66
2021/09/14 23:42:52;;;;;;;12.95;10.30;;;;;;;18.75;66.33;99582.78;10393978;28;20147;-65
2021/09/14 23:47:54;;;;;;;14.65;8.95;;;;;;;18.62;66.37;99583.16;10393613;28;20055;-65
2021/09/14 23:52:56;;;;;;;13.13;9.82;;;;;;;18.57;66.84;99573.00;10393660;28;20067;-65
2021/09/14 23:57:57;;;;;;;14.15;9.65;;;;;;;18.54;66.86;99577.78;10393544;28;20053;-65
